sensor_id;sensor_type;location;lat;lon;timestamp;temperature;humidity
38488;DHT22;57384;51.986;4.458;2022-10-16T00:01:41;14.90;72.70
38488;DHT22;57384;51.986;4.458;2022-10-16T00:04:26;14.90;72.70
38488;DHT22;57384;51.986;4.458;2022-10-16T00:07:10;14.90;72.70
38488;DHT22;57384;51.986;4.458;2022-10-16T00:09:57;14.90;72.70
38488;DHT22;57384;51.986;4.458;2022-10-16T00:12:41;14.90;72.70
38488;DHT22;57384;51.986;4.458;2022-10-16T00:15:26;14.90;72.70
38488;DHT22;57384;51.986;4.458;2022-10-16T00:18:10;15.00;72.70
38488;DHT22;57384;51.986;4.458;2022-10-16T00:20:54;14.90;72.60
38488;DHT22;57384;51.986;4.458;2022-10-16T00:23:39;14.90;72.60
38488;DHT22;57384;51.986;4.458;2022-10-16T00:26:23;14.90;72.60
38488;DHT22;57384;51.986;4.458;2022-10-16T00:29:07;14.90;72.60
38488;DHT22;57384;51.986;4.458;2022-10-16T00:31:51;14.90;72.60
38488;DHT22;57384;51.986;4.458;2022-10-16T00:34:35;14.90;72.60
38488;DHT22;57384;51.986;4.458;2022-10-16T00:37:20;14.90;72.60
38488;DHT22;57384;51.986;4.458;2022-10-16T00:40:04;15.00;72.60
38488;DHT22;57384;51.986;4.458;2022-10-16T00:42:48;15.00;72.60
38488;DHT22;57384;51.986;4.458;2022-10-16T00:45:34;15.00;72.60
38488;DHT22;57384;51.986;4.458;2022-10-16T00:48:18;15.00;72.60
38488;DHT22;57384;51.986;4.458;2022-10-16T00:51:06;15.00;72.50
38488;DHT22;57384;51.986;4.458;2022-10-16T00:53:53;15.00;72.50
38488;DHT22;57384;51.986;4.458;2022-10-16T00:56:38;15.00;72.50
38488;DHT22;57384;51.986;4.458;2022-10-16T00:59:23;15.00;72.50
38488;DHT22;57384;51.986;4.458;2022-10-16T01:02:13;15.00;72.60
38488;DHT22;57384;51.986;4.458;2022-10-16T01:04:57;15.00;72.50
38488;DHT22;57384;51.986;4.458;2022-10-16T01:07:47;15.00;72.50
38488;DHT22;57384;51.986;4.458;2022-10-16T01:10:41;15.10;72.60
38488;DHT22;57384;51.986;4.458;2022-10-16T01:13:32;15.00;72.60
38488;DHT22;57384;51.986;4.458;2022-10-16T01:16:52;15.00;72.60
38488;DHT22;57384;51.986;4.458;2022-10-16T01:22:11;15.00;72.60
38488;DHT22;57384;51.986;4.458;2022-10-16T01:24:56;15.00;72.70
38488;DHT22;57384;51.986;4.458;2022-10-16T01:27:43;15.00;72.70
38488;DHT22;57384;51.986;4.458;2022-10-16T01:30:29;15.00;72.80
38488;DHT22;57384;51.986;4.458;2022-10-16T01:35:59;15.00;72.70
38488;DHT22;57384;51.986;4.458;2022-10-16T01:38:54;15.00;72.80
38488;DHT22;57384;51.986;4.458;2022-10-16T01:41:39;15.00;72.80
38488;DHT22;57384;51.986;4.458;2022-10-16T01:44:25;14.90;72.80
38488;DHT22;57384;51.986;4.458;2022-10-16T01:47:11;14.90;72.80
38488;DHT22;57384;51.986;4.458;2022-10-16T01:49:56;14.90;72.80
38488;DHT22;57384;51.986;4.458;2022-10-16T01:52:42;14.90;72.90
38488;DHT22;57384;51.986;4.458;2022-10-16T01:55:31;14.90;72.90
38488;DHT22;57384;51.986;4.458;2022-10-16T01:58:16;14.90;72.90
38488;DHT22;57384;51.986;4.458;2022-10-16T02:01:01;14.80;72.90
38488;DHT22;57384;51.986;4.458;2022-10-16T02:03:46;14.90;72.90
38488;DHT22;57384;51.986;4.458;2022-10-16T02:06:32;14.90;72.90
38488;DHT22;57384;51.986;4.458;2022-10-16T02:09:18;14.80;72.90
38488;DHT22;57384;51.986;4.458;2022-10-16T02:12:06;14.90;73.00
38488;DHT22;57384;51.986;4.458;2022-10-16T02:14:52;14.80;72.90
38488;DHT22;57384;51.986;4.458;2022-10-16T02:17:36;14.80;72.90
38488;DHT22;57384;51.986;4.458;2022-10-16T02:20:23;14.80;72.90
38488;DHT22;57384;51.986;4.458;2022-10-16T02:23:09;14.80;72.90
38488;DHT22;57384;51.986;4.458;2022-10-16T02:25:56;14.80;72.90
38488;DHT22;57384;51.986;4.458;2022-10-16T02:28:45;14.80;73.00
38488;DHT22;57384;51.986;4.458;2022-10-16T02:31:31;14.80;73.00
38488;DHT22;57384;51.986;4.458;2022-10-16T02:34:16;14.80;72.90
38488;DHT22;57384;51.986;4.458;2022-10-16T02:37:05;14.70;72.90
38488;DHT22;57384;51.986;4.458;2022-10-16T02:39:49;14.80;72.90
38488;DHT22;57384;51.986;4.458;2022-10-16T02:42:34;14.80;73.00
38488;DHT22;57384;51.986;4.458;2022-10-16T02:45:20;14.70;72.90
38488;DHT22;57384;51.986;4.458;2022-10-16T02:48:04;14.80;73.00
38488;DHT22;57384;51.986;4.458;2022-10-16T02:50:49;14.80;73.00
38488;DHT22;57384;51.986;4.458;2022-10-16T02:53:33;14.70;72.90
38488;DHT22;57384;51.986;4.458;2022-10-16T02:56:17;14.70;72.90
38488;DHT22;57384;51.986;4.458;2022-10-16T02:59:01;14.70;72.90
38488;DHT22;57384;51.986;4.458;2022-10-16T03:01:46;14.70;73.00
38488;DHT22;57384;51.986;4.458;2022-10-16T03:04:30;14.70;73.00
38488;DHT22;57384;51.986;4.458;2022-10-16T03:07:14;14.70;73.00
38488;DHT22;57384;51.986;4.458;2022-10-16T03:09:58;14.70;73.00
38488;DHT22;57384;51.986;4.458;2022-10-16T03:12:42;14.70;73.00
38488;DHT22;57384;51.986;4.458;2022-10-16T03:15:27;14.70;73.00
38488;DHT22;57384;51.986;4.458;2022-10-16T03:18:11;14.70;73.00
38488;DHT22;57384;51.986;4.458;2022-10-16T03:20:55;14.70;73.00
38488;DHT22;57384;51.986;4.458;2022-10-16T03:23:39;14.70;73.10
38488;DHT22;57384;51.986;4.458;2022-10-16T03:26:23;14.60;73.00
38488;DHT22;57384;51.986;4.458;2022-10-16T03:29:08;14.60;73.00
38488;DHT22;57384;51.986;4.458;2022-10-16T03:31:52;14.60;73.00
38488;DHT22;57384;51.986;4.458;2022-10-16T03:34:36;14.60;73.10
38488;DHT22;57384;51.986;4.458;2022-10-16T03:37:20;14.60;73.00
38488;DHT22;57384;51.986;4.458;2022-10-16T03:40:05;14.60;73.00
38488;DHT22;57384;51.986;4.458;2022-10-16T03:42:49;14.60;73.00
38488;DHT22;57384;51.986;4.458;2022-10-16T03:45:33;14.60;73.00
38488;DHT22;57384;51.986;4.458;2022-10-16T03:48:18;14.60;73.10
38488;DHT22;57384;51.986;4.458;2022-10-16T03:51:02;14.60;73.00
38488;DHT22;57384;51.986;4.458;2022-10-16T03:53:46;14.50;73.00
38488;DHT22;57384;51.986;4.458;2022-10-16T03:56:31;14.50;73.00
38488;DHT22;57384;51.986;4.458;2022-10-16T03:59:15;14.60;73.00
38488;DHT22;57384;51.986;4.458;2022-10-16T04:01:59;14.60;73.10
38488;DHT22;57384;51.986;4.458;2022-10-16T04:04:43;14.60;73.10
38488;DHT22;57384;51.986;4.458;2022-10-16T04:10:22;14.60;73.10
38488;DHT22;57384;51.986;4.458;2022-10-16T04:13:06;14.50;73.10
38488;DHT22;57384;51.986;4.458;2022-10-16T04:15:50;14.50;73.10
38488;DHT22;57384;51.986;4.458;2022-10-16T04:18:37;14.50;73.10
38488;DHT22;57384;51.986;4.458;2022-10-16T04:21:21;14.50;73.10
38488;DHT22;57384;51.986;4.458;2022-10-16T04:24:05;14.50;73.10
38488;DHT22;57384;51.986;4.458;2022-10-16T04:26:50;14.50;73.00
38488;DHT22;57384;51.986;4.458;2022-10-16T04:29:34;14.50;73.10
38488;DHT22;57384;51.986;4.458;2022-10-16T04:32:18;14.50;73.10
38488;DHT22;57384;51.986;4.458;2022-10-16T04:35:02;14.50;73.10
38488;DHT22;57384;51.986;4.458;2022-10-16T04:37:46;14.50;73.10
38488;DHT22;57384;51.986;4.458;2022-10-16T04:40:31;14.50;73.10
38488;DHT22;57384;51.986;4.458;2022-10-16T04:43:15;14.50;73.10
38488;DHT22;57384;51.986;4.458;2022-10-16T04:45:59;14.50;73.10
38488;DHT22;57384;51.986;4.458;2022-10-16T04:48:44;14.50;73.10
38488;DHT22;57384;51.986;4.458;2022-10-16T04:51:28;14.60;73.20
38488;DHT22;57384;51.986;4.458;2022-10-16T04:54:12;14.50;73.10
38488;DHT22;57384;51.986;4.458;2022-10-16T04:56:56;14.50;73.10
38488;DHT22;57384;51.986;4.458;2022-10-16T04:59:40;14.50;73.10
38488;DHT22;57384;51.986;4.458;2022-10-16T05:02:25;14.50;73.10
38488;DHT22;57384;51.986;4.458;2022-10-16T05:05:09;14.50;73.10
38488;DHT22;57384;51.986;4.458;2022-10-16T05:07:53;14.50;73.10
38488;DHT22;57384;51.986;4.458;2022-10-16T05:10:37;14.50;73.10
38488;DHT22;57384;51.986;4.458;2022-10-16T05:13:22;14.50;73.10
38488;DHT22;57384;51.986;4.458;2022-10-16T05:16:06;14.50;73.10
38488;DHT22;57384;51.986;4.458;2022-10-16T05:18:51;14.50;73.00
38488;DHT22;57384;51.986;4.458;2022-10-16T05:21:35;14.50;73.00
38488;DHT22;57384;51.986;4.458;2022-10-16T05:24:21;14.60;73.00
38488;DHT22;57384;51.986;4.458;2022-10-16T05:27:05;14.60;73.00
38488;DHT22;57384;51.986;4.458;2022-10-16T05:29:52;14.60;73.10
38488;DHT22;57384;51.986;4.458;2022-10-16T05:32:36;14.60;73.10
38488;DHT22;57384;51.986;4.458;2022-10-16T05:35:21;14.60;73.00
38488;DHT22;57384;51.986;4.458;2022-10-16T05:38:05;14.60;73.00
38488;DHT22;57384;51.986;4.458;2022-10-16T05:40:52;14.60;73.00
38488;DHT22;57384;51.986;4.458;2022-10-16T05:43:36;14.60;73.00
38488;DHT22;57384;51.986;4.458;2022-10-16T05:49:17;14.60;73.00
38488;DHT22;57384;51.986;4.458;2022-10-16T05:52:02;14.60;73.00
38488;DHT22;57384;51.986;4.458;2022-10-16T05:54:46;14.60;73.00
38488;DHT22;57384;51.986;4.458;2022-10-16T05:57:30;14.60;73.10
38488;DHT22;57384;51.986;4.458;2022-10-16T06:00:14;14.60;73.00
38488;DHT22;57384;51.986;4.458;2022-10-16T06:02:59;14.60;73.10
38488;DHT22;57384;51.986;4.458;2022-10-16T06:05:43;14.60;73.10
38488;DHT22;57384;51.986;4.458;2022-10-16T06:08:27;14.60;73.10
38488;DHT22;57384;51.986;4.458;2022-10-16T06:11:13;14.60;73.10
38488;DHT22;57384;51.986;4.458;2022-10-16T06:13:58;14.60;73.10
38488;DHT22;57384;51.986;4.458;2022-10-16T06:16:42;14.60;73.10
38488;DHT22;57384;51.986;4.458;2022-10-16T06:19:27;14.60;73.20
38488;DHT22;57384;51.986;4.458;2022-10-16T06:22:11;14.60;73.20
38488;DHT22;57384;51.986;4.458;2022-10-16T06:24:58;14.60;73.20
38488;DHT22;57384;51.986;4.458;2022-10-16T06:27:43;14.60;73.20
38488;DHT22;57384;51.986;4.458;2022-10-16T06:30:27;14.60;73.20
38488;DHT22;57384;51.986;4.458;2022-10-16T06:33:12;14.70;73.20
38488;DHT22;57384;51.986;4.458;2022-10-16T06:36:00;14.60;73.20
38488;DHT22;57384;51.986;4.458;2022-10-16T06:38:44;14.60;73.20
38488;DHT22;57384;51.986;4.458;2022-10-16T06:41:28;14.60;73.30
38488;DHT22;57384;51.986;4.458;2022-10-16T06:44:12;14.60;73.30
38488;DHT22;57384;51.986;4.458;2022-10-16T06:46:56;14.60;73.30
38488;DHT22;57384;51.986;4.458;2022-10-16T06:49:44;14.60;73.30
38488;DHT22;57384;51.986;4.458;2022-10-16T06:52:28;14.60;73.30
38488;DHT22;57384;51.986;4.458;2022-10-16T06:55:12;14.60;73.30
38488;DHT22;57384;51.986;4.458;2022-10-16T06:57:56;14.60;73.30
38488;DHT22;57384;51.986;4.458;2022-10-16T07:00:41;14.60;73.30
38488;DHT22;57384;51.986;4.458;2022-10-16T07:03:25;14.60;73.30
38488;DHT22;57384;51.986;4.458;2022-10-16T07:06:10;14.60;73.30
38488;DHT22;57384;51.986;4.458;2022-10-16T07:08:55;14.60;73.30
38488;DHT22;57384;51.986;4.458;2022-10-16T07:11:39;14.60;73.30
38488;DHT22;57384;51.986;4.458;2022-10-16T07:14:23;14.60;73.30
38488;DHT22;57384;51.986;4.458;2022-10-16T07:17:07;14.60;73.30
38488;DHT22;57384;51.986;4.458;2022-10-16T07:19:52;14.60;73.40
38488;DHT22;57384;51.986;4.458;2022-10-16T07:22:36;14.60;73.40
38488;DHT22;57384;51.986;4.458;2022-10-16T07:25:20;14.60;73.40
38488;DHT22;57384;51.986;4.458;2022-10-16T07:28:04;14.60;73.40
38488;DHT22;57384;51.986;4.458;2022-10-16T07:30:48;14.60;73.40
38488;DHT22;57384;51.986;4.458;2022-10-16T07:33:33;14.60;73.30
38488;DHT22;57384;51.986;4.458;2022-10-16T07:36:18;14.70;73.40
38488;DHT22;57384;51.986;4.458;2022-10-16T07:39:05;14.60;73.20
38488;DHT22;57384;51.986;4.458;2022-10-16T07:41:49;14.70;73.20
38488;DHT22;57384;51.986;4.458;2022-10-16T07:44:33;14.70;73.20
38488;DHT22;57384;51.986;4.458;2022-10-16T07:47:18;14.80;73.20
38488;DHT22;57384;51.986;4.458;2022-10-16T07:50:02;14.80;73.10
38488;DHT22;57384;51.986;4.458;2022-10-16T07:52:46;14.80;73.10
38488;DHT22;57384;51.986;4.458;2022-10-16T07:55:30;14.90;73.10
38488;DHT22;57384;51.986;4.458;2022-10-16T07:58:14;14.90;73.10
38488;DHT22;57384;51.986;4.458;2022-10-16T08:01:02;14.90;73.00
38488;DHT22;57384;51.986;4.458;2022-10-16T08:03:47;15.00;73.00
38488;DHT22;57384;51.986;4.458;2022-10-16T08:06:35;15.00;73.00
38488;DHT22;57384;51.986;4.458;2022-10-16T08:09:22;15.10;72.90
38488;DHT22;57384;51.986;4.458;2022-10-16T08:12:09;15.10;72.80
38488;DHT22;57384;51.986;4.458;2022-10-16T08:14:53;15.20;72.80
38488;DHT22;57384;51.986;4.458;2022-10-16T08:17:38;15.30;72.70
38488;DHT22;57384;51.986;4.458;2022-10-16T08:20:22;15.40;72.60
38488;DHT22;57384;51.986;4.458;2022-10-16T08:23:07;15.50;72.50
38488;DHT22;57384;51.986;4.458;2022-10-16T08:25:54;15.60;72.30
38488;DHT22;57384;51.986;4.458;2022-10-16T08:28:38;15.70;72.20
38488;DHT22;57384;51.986;4.458;2022-10-16T08:31:23;15.80;72.00
38488;DHT22;57384;51.986;4.458;2022-10-16T08:34:07;15.90;71.90
38488;DHT22;57384;51.986;4.458;2022-10-16T08:36:55;16.00;71.70
38488;DHT22;57384;51.986;4.458;2022-10-16T08:39:42;16.10;71.60
38488;DHT22;57384;51.986;4.458;2022-10-16T08:45:57;16.40;71.50
38488;DHT22;57384;51.986;4.458;2022-10-16T08:48:53;16.50;71.30
38488;DHT22;57384;51.986;4.458;2022-10-16T08:51:47;16.60;71.30
38488;DHT22;57384;51.986;4.458;2022-10-16T08:54:36;16.80;71.30
38488;DHT22;57384;51.986;4.458;2022-10-16T08:57:22;16.90;71.30
38488;DHT22;57384;51.986;4.458;2022-10-16T09:00:27;17.00;71.20
38488;DHT22;57384;51.986;4.458;2022-10-16T09:03:21;17.10;71.10
38488;DHT22;57384;51.986;4.458;2022-10-16T09:09:15;17.30;71.00
38488;DHT22;57384;51.986;4.458;2022-10-16T09:18:01;17.80;70.70
38488;DHT22;57384;51.986;4.458;2022-10-16T09:26:37;18.30;70.50
38488;DHT22;57384;51.986;4.458;2022-10-16T09:29:36;18.40;70.30
38488;DHT22;57384;51.986;4.458;2022-10-16T09:32:21;18.60;70.30
38488;DHT22;57384;51.986;4.458;2022-10-16T09:35:09;18.80;70.30
38488;DHT22;57384;51.986;4.458;2022-10-16T09:37:58;18.90;70.20
38488;DHT22;57384;51.986;4.458;2022-10-16T09:40:45;19.10;70.20
38488;DHT22;57384;51.986;4.458;2022-10-16T09:49:26;19.60;70.20
38488;DHT22;57384;51.986;4.458;2022-10-16T09:52:14;19.70;70.20
38488;DHT22;57384;51.986;4.458;2022-10-16T09:55:09;19.80;70.10
38488;DHT22;57384;51.986;4.458;2022-10-16T09:57:59;19.90;70.20
38488;DHT22;57384;51.986;4.458;2022-10-16T10:00:50;20.10;70.20
38488;DHT22;57384;51.986;4.458;2022-10-16T10:03:37;20.20;70.80
38488;DHT22;57384;51.986;4.458;2022-10-16T10:06:22;20.30;70.20
38488;DHT22;57384;51.986;4.458;2022-10-16T10:09:22;20.40;70.30
38488;DHT22;57384;51.986;4.458;2022-10-16T10:12:16;20.50;70.40
38488;DHT22;57384;51.986;4.458;2022-10-16T10:15:06;20.60;70.40
38488;DHT22;57384;51.986;4.458;2022-10-16T10:17:54;20.70;70.50
38488;DHT22;57384;51.986;4.458;2022-10-16T10:20:43;20.70;70.60
38488;DHT22;57384;51.986;4.458;2022-10-16T10:23:28;20.80;70.70
38488;DHT22;57384;51.986;4.458;2022-10-16T10:26:20;20.90;70.70
38488;DHT22;57384;51.986;4.458;2022-10-16T10:29:23;21.00;70.80
38488;DHT22;57384;51.986;4.458;2022-10-16T10:32:33;21.10;70.70
38488;DHT22;57384;51.986;4.458;2022-10-16T10:35:22;21.20;70.70
38488;DHT22;57384;51.986;4.458;2022-10-16T10:38:10;21.40;70.60
38488;DHT22;57384;51.986;4.458;2022-10-16T10:44:26;21.60;70.40
38488;DHT22;57384;51.986;4.458;2022-10-16T10:52:53;22.10;70.10
38488;DHT22;57384;51.986;4.458;2022-10-16T10:55:43;22.20;69.90
38488;DHT22;57384;51.986;4.458;2022-10-16T10:58:40;22.40;69.80
38488;DHT22;57384;51.986;4.458;2022-10-16T11:07:09;22.70;69.90
38488;DHT22;57384;51.986;4.458;2022-10-16T11:10:12;22.70;69.90
38488;DHT22;57384;51.986;4.458;2022-10-16T11:13:38;22.80;69.90
38488;DHT22;57384;51.986;4.458;2022-10-16T11:16:18;23.00;69.90
38488;DHT22;57384;51.986;4.458;2022-10-16T11:22:17;23.20;69.70
38488;DHT22;57384;51.986;4.458;2022-10-16T11:25:13;23.40;69.50
38488;DHT22;57384;51.986;4.458;2022-10-16T11:31:21;23.70;69.30
38488;DHT22;57384;51.986;4.458;2022-10-16T11:34:17;23.80;69.20
38488;DHT22;57384;51.986;4.458;2022-10-16T11:39:49;24.10;69.10
38488;DHT22;57384;51.986;4.458;2022-10-16T11:42:37;24.20;69.00
38488;DHT22;57384;51.986;4.458;2022-10-16T11:48:37;24.30;68.90
38488;DHT22;57384;51.986;4.458;2022-10-16T11:54:29;24.50;68.70
38488;DHT22;57384;51.986;4.458;2022-10-16T11:57:35;24.60;68.60
38488;DHT22;57384;51.986;4.458;2022-10-16T12:00:27;24.70;68.50
38488;DHT22;57384;51.986;4.458;2022-10-16T12:03:16;24.80;68.40
38488;DHT22;57384;51.986;4.458;2022-10-16T12:08:54;25.00;68.20
38488;DHT22;57384;51.986;4.458;2022-10-16T12:11:39;25.10;68.10
38488;DHT22;57384;51.986;4.458;2022-10-16T12:17:24;25.40;67.70
38488;DHT22;57384;51.986;4.458;2022-10-16T12:22:56;25.60;67.50
38488;DHT22;57384;51.986;4.458;2022-10-16T12:25:40;25.60;67.40
38488;DHT22;57384;51.986;4.458;2022-10-16T12:28:29;25.60;67.30
38488;DHT22;57384;51.986;4.458;2022-10-16T12:31:13;25.70;67.30
38488;DHT22;57384;51.986;4.458;2022-10-16T12:34:01;25.70;67.20
38488;DHT22;57384;51.986;4.458;2022-10-16T12:36:46;25.70;67.10
38488;DHT22;57384;51.986;4.458;2022-10-16T12:39:30;25.80;67.10
38488;DHT22;57384;51.986;4.458;2022-10-16T12:42:31;25.80;67.00
38488;DHT22;57384;51.986;4.458;2022-10-16T12:45:32;25.80;66.80
38488;DHT22;57384;51.986;4.458;2022-10-16T12:48:22;25.90;66.70
38488;DHT22;57384;51.986;4.458;2022-10-16T12:51:10;25.90;66.60
38488;DHT22;57384;51.986;4.458;2022-10-16T12:57:04;25.90;66.30
38488;DHT22;57384;51.986;4.458;2022-10-16T13:29:02;25.20;65.40
38488;DHT22;57384;51.986;4.458;2022-10-16T13:31:49;25.10;65.40
38488;DHT22;57384;51.986;4.458;2022-10-16T13:34:41;25.00;65.40
38488;DHT22;57384;51.986;4.458;2022-10-16T13:37:26;24.90;65.40
38488;DHT22;57384;51.986;4.458;2022-10-16T13:40:21;24.80;65.30
38488;DHT22;57384;51.986;4.458;2022-10-16T13:43:07;24.70;65.20
38488;DHT22;57384;51.986;4.458;2022-10-16T13:45:52;24.60;65.10
38488;DHT22;57384;51.986;4.458;2022-10-16T13:48:37;24.50;65.10
38488;DHT22;57384;51.986;4.458;2022-10-16T13:53:52;24.30;65.00
38488;DHT22;57384;51.986;4.458;2022-10-16T13:56:38;24.30;65.00
38488;DHT22;57384;51.986;4.458;2022-10-16T13:59:26;24.20;64.90
38488;DHT22;57384;51.986;4.458;2022-10-16T14:05:00;24.00;64.90
38488;DHT22;57384;51.986;4.458;2022-10-16T14:07:47;23.90;64.90
38488;DHT22;57384;51.986;4.458;2022-10-16T14:10:32;23.80;64.80
38488;DHT22;57384;51.986;4.458;2022-10-16T14:13:18;23.80;64.80
38488;DHT22;57384;51.986;4.458;2022-10-16T14:16:15;23.70;64.90
38488;DHT22;57384;51.986;4.458;2022-10-16T14:19:03;23.60;64.80
38488;DHT22;57384;51.986;4.458;2022-10-16T14:21:51;23.60;64.80
38488;DHT22;57384;51.986;4.458;2022-10-16T14:24:35;23.50;64.80
38488;DHT22;57384;51.986;4.458;2022-10-16T14:27:33;23.40;64.80
38488;DHT22;57384;51.986;4.458;2022-10-16T14:30:19;23.30;64.70
38488;DHT22;57384;51.986;4.458;2022-10-16T14:33:05;23.30;64.70
38488;DHT22;57384;51.986;4.458;2022-10-16T14:39:03;23.10;64.70
38488;DHT22;57384;51.986;4.458;2022-10-16T14:41:55;23.00;64.70
38488;DHT22;57384;51.986;4.458;2022-10-16T14:45:00;23.00;64.70
38488;DHT22;57384;51.986;4.458;2022-10-16T14:47:48;22.90;64.70
38488;DHT22;57384;51.986;4.458;2022-10-16T14:50:33;22.80;64.70
38488;DHT22;57384;51.986;4.458;2022-10-16T14:53:17;22.70;64.70
38488;DHT22;57384;51.986;4.458;2022-10-16T14:56:08;22.70;64.70
38488;DHT22;57384;51.986;4.458;2022-10-16T14:58:56;22.60;64.70
38488;DHT22;57384;51.986;4.458;2022-10-16T15:01:42;22.50;64.70
38488;DHT22;57384;51.986;4.458;2022-10-16T15:04:26;22.50;64.70
38488;DHT22;57384;51.986;4.458;2022-10-16T15:07:10;22.40;64.70
38488;DHT22;57384;51.986;4.458;2022-10-16T15:09:55;22.40;64.80
38488;DHT22;57384;51.986;4.458;2022-10-16T15:12:39;22.30;64.80
38488;DHT22;57384;51.986;4.458;2022-10-16T15:18:07;22.10;64.80
38488;DHT22;57384;51.986;4.458;2022-10-16T15:20:52;22.10;64.90
38488;DHT22;57384;51.986;4.458;2022-10-16T15:23:36;22.00;64.90
38488;DHT22;57384;51.986;4.458;2022-10-16T15:26:20;21.90;64.90
38488;DHT22;57384;51.986;4.458;2022-10-16T15:29:04;21.90;65.00
38488;DHT22;57384;51.986;4.458;2022-10-16T15:31:49;21.80;65.00
38488;DHT22;57384;51.986;4.458;2022-10-16T15:34:33;21.70;65.00
38488;DHT22;57384;51.986;4.458;2022-10-16T15:37:17;21.70;65.10
38488;DHT22;57384;51.986;4.458;2022-10-16T15:40:02;21.60;65.10
38488;DHT22;57384;51.986;4.458;2022-10-16T15:42:46;21.50;65.10
38488;DHT22;57384;51.986;4.458;2022-10-16T15:45:30;21.50;65.20
38488;DHT22;57384;51.986;4.458;2022-10-16T15:48:14;21.40;65.20
38488;DHT22;57384;51.986;4.458;2022-10-16T15:51:01;21.30;65.20
38488;DHT22;57384;51.986;4.458;2022-10-16T15:53:57;21.30;65.30
38488;DHT22;57384;51.986;4.458;2022-10-16T15:56:41;21.20;65.30
38488;DHT22;57384;51.986;4.458;2022-10-16T15:59:25;21.10;65.40
38488;DHT22;57384;51.986;4.458;2022-10-16T16:02:10;21.10;65.40
38488;DHT22;57384;51.986;4.458;2022-10-16T16:04:54;21.00;65.40
38488;DHT22;57384;51.986;4.458;2022-10-16T16:07:38;20.90;65.50
38488;DHT22;57384;51.986;4.458;2022-10-16T16:13:27;20.80;65.50
38488;DHT22;57384;51.986;4.458;2022-10-16T16:16:12;20.70;65.60
38488;DHT22;57384;51.986;4.458;2022-10-16T16:18:56;20.70;66.30
38488;DHT22;57384;51.986;4.458;2022-10-16T16:21:40;20.60;65.70
38488;DHT22;57384;51.986;4.458;2022-10-16T16:24:25;20.50;65.70
38488;DHT22;57384;51.986;4.458;2022-10-16T16:27:09;20.40;65.70
38488;DHT22;57384;51.986;4.458;2022-10-16T16:29:55;20.40;65.80
38488;DHT22;57384;51.986;4.458;2022-10-16T16:32:40;20.30;65.90
38488;DHT22;57384;51.986;4.458;2022-10-16T16:35:24;20.20;65.90
38488;DHT22;57384;51.986;4.458;2022-10-16T16:38:08;20.20;65.90
38488;DHT22;57384;51.986;4.458;2022-10-16T16:44:00;20.10;66.10
38488;DHT22;57384;51.986;4.458;2022-10-16T16:46:44;20.00;66.10
38488;DHT22;57384;51.986;4.458;2022-10-16T16:49:28;19.90;66.10
38488;DHT22;57384;51.986;4.458;2022-10-16T16:52:13;19.80;66.10
38488;DHT22;57384;51.986;4.458;2022-10-16T16:54:59;19.80;66.20
38488;DHT22;57384;51.986;4.458;2022-10-16T16:57:44;19.70;66.20
38488;DHT22;57384;51.986;4.458;2022-10-16T17:00:28;19.70;66.20
38488;DHT22;57384;51.986;4.458;2022-10-16T17:03:12;19.60;66.30
38488;DHT22;57384;51.986;4.458;2022-10-16T17:09:03;19.50;66.40
38488;DHT22;57384;51.986;4.458;2022-10-16T17:11:48;19.30;66.30
38488;DHT22;57384;51.986;4.458;2022-10-16T17:14:32;19.30;66.40
38488;DHT22;57384;51.986;4.458;2022-10-16T17:17:16;19.20;66.40
38488;DHT22;57384;51.986;4.458;2022-10-16T17:20:01;19.20;66.40
38488;DHT22;57384;51.986;4.458;2022-10-16T17:22:45;19.10;66.40
38488;DHT22;57384;51.986;4.458;2022-10-16T17:25:29;19.10;66.50
38488;DHT22;57384;51.986;4.458;2022-10-16T17:28:14;19.00;66.50
38488;DHT22;57384;51.986;4.458;2022-10-16T17:31:08;18.90;66.50
38488;DHT22;57384;51.986;4.458;2022-10-16T17:33:52;18.90;66.60
38488;DHT22;57384;51.986;4.458;2022-10-16T17:36:37;18.80;66.60
38488;DHT22;57384;51.986;4.458;2022-10-16T17:39:24;18.80;66.60
38488;DHT22;57384;51.986;4.458;2022-10-16T17:42:08;18.70;66.60
38488;DHT22;57384;51.986;4.458;2022-10-16T17:44:52;18.70;66.70
38488;DHT22;57384;51.986;4.458;2022-10-16T17:47:38;18.60;66.70
38488;DHT22;57384;51.986;4.458;2022-10-16T17:50:22;18.60;66.80
38488;DHT22;57384;51.986;4.458;2022-10-16T17:53:06;18.50;66.80
38488;DHT22;57384;51.986;4.458;2022-10-16T17:55:50;18.50;66.90
38488;DHT22;57384;51.986;4.458;2022-10-16T17:58:35;18.40;66.90
38488;DHT22;57384;51.986;4.458;2022-10-16T18:01:20;18.30;66.80
38488;DHT22;57384;51.986;4.458;2022-10-16T18:04:06;18.30;66.90
38488;DHT22;57384;51.986;4.458;2022-10-16T18:06:50;18.20;66.90
38488;DHT22;57384;51.986;4.458;2022-10-16T18:09:34;18.20;67.00
38488;DHT22;57384;51.986;4.458;2022-10-16T18:12:18;18.10;67.00
38488;DHT22;57384;51.986;4.458;2022-10-16T18:15:02;18.10;67.00
38488;DHT22;57384;51.986;4.458;2022-10-16T18:17:47;18.10;67.00
38488;DHT22;57384;51.986;4.458;2022-10-16T18:20:33;18.00;67.00
38488;DHT22;57384;51.986;4.458;2022-10-16T18:23:19;18.00;67.00
38488;DHT22;57384;51.986;4.458;2022-10-16T18:26:07;18.00;67.10
38488;DHT22;57384;51.986;4.458;2022-10-16T18:28:51;17.90;67.10
38488;DHT22;57384;51.986;4.458;2022-10-16T18:31:36;17.90;67.10
38488;DHT22;57384;51.986;4.458;2022-10-16T18:34:23;17.80;67.00
38488;DHT22;57384;51.986;4.458;2022-10-16T18:37:07;17.80;67.10
38488;DHT22;57384;51.986;4.458;2022-10-16T18:39:52;17.80;67.10
38488;DHT22;57384;51.986;4.458;2022-10-16T18:42:36;17.70;67.10
38488;DHT22;57384;51.986;4.458;2022-10-16T18:45:20;17.70;67.10
38488;DHT22;57384;51.986;4.458;2022-10-16T18:48:05;17.60;67.20
38488;DHT22;57384;51.986;4.458;2022-10-16T18:50:49;17.60;67.20
38488;DHT22;57384;51.986;4.458;2022-10-16T18:56:40;17.60;67.20
38488;DHT22;57384;51.986;4.458;2022-10-16T18:59:27;17.50;67.20
38488;DHT22;57384;51.986;4.458;2022-10-16T19:02:17;17.50;67.20
38488;DHT22;57384;51.986;4.458;2022-10-16T19:05:04;17.50;67.20
38488;DHT22;57384;51.986;4.458;2022-10-16T19:07:48;17.40;67.20
38488;DHT22;57384;51.986;4.458;2022-10-16T19:10:35;17.40;67.30
38488;DHT22;57384;51.986;4.458;2022-10-16T19:13:21;17.40;67.30
38488;DHT22;57384;51.986;4.458;2022-10-16T19:16:12;17.30;67.30
38488;DHT22;57384;51.986;4.458;2022-10-16T19:18:57;17.30;67.30
38488;DHT22;57384;51.986;4.458;2022-10-16T19:21:46;17.30;67.30
38488;DHT22;57384;51.986;4.458;2022-10-16T19:24:38;17.30;67.40
38488;DHT22;57384;51.986;4.458;2022-10-16T19:30:38;17.20;67.40
38488;DHT22;57384;51.986;4.458;2022-10-16T19:33:25;17.10;67.30
38488;DHT22;57384;51.986;4.458;2022-10-16T19:36:14;17.20;67.40
38488;DHT22;57384;51.986;4.458;2022-10-16T19:38:59;17.10;67.40
38488;DHT22;57384;51.986;4.458;2022-10-16T19:41:47;17.10;67.50
38488;DHT22;57384;51.986;4.458;2022-10-16T19:44:34;17.00;67.50